Time;durP1;ratioP1;P1;durP2;ratioP2;P2;SDS_P1;SDS_P2;PMS_P1;PMS_P2;Temp;Humidity;BMP_temperature;BMP_pressure;BME280_temperature;BME280_humidity;BME280_pressure;Samples;Min_cycle;Max_cycle;Signal;HPM_P1;HPM_P2
2022/04/19 00:01:18;;;;;;;3.05;2.13;;;2.60;99.90;;;;;;5020727;28;20039;-72
2022/04/19 00:03:43;;;;;;;2.47;2.17;;;2.70;99.90;;;;;;5018938;28;20072;-73
2022/04/19 00:06:09;;;;;;;2.65;2.05;;;2.70;99.90;;;;;;5022148;28;20068;-72
2022/04/19 00:08:35;;;;;;;2.20;1.70;;;2.80;99.90;;;;;;5021214;28;20044;-73
2022/04/19 00:11:01;;;;;;;3.25;1.80;;;2.70;99.90;;;;;;5021142;28;20045;-73
2022/04/19 00:13:28;;;;;;;2.22;1.85;;;2.50;99.90;;;;;;5021318;28;20132;-73
2022/04/19 00:15:55;;;;;;;2.33;2.05;;;2.50;99.90;;;;;;5021744;28;20120;-73
2022/04/19 00:18:21;;;;;;;2.78;2.50;;;2.60;99.90;;;;;;5024200;28;21844;-72
2022/04/19 00:20:48;;;;;;;2.25;2.00;;;2.80;99.90;;;;;;5020082;28;20029;-73
2022/04/19 00:23:15;;;;;;;2.75;2.30;;;2.80;99.90;;;;;;5019577;28;20143;-73
2022/04/19 00:25:45;;;;;;;2.95;2.05;;;2.90;99.90;;;;;;5019558;28;20099;-72
2022/04/19 00:28:11;;;;;;;3.72;1.83;;;2.90;99.90;;;;;;5019797;28;20044;-73
2022/04/19 00:30:37;;;;;;;2.00;1.88;;;2.90;99.90;;;;;;5020486;28;20529;-72
2022/04/19 00:33:04;;;;;;;3.38;2.15;;;2.90;99.90;;;;;;5020202;28;20044;-72
2022/04/19 00:35:31;;;;;;;3.08;2.22;;;2.90;99.90;;;;;;5020161;28;20052;-72
2022/04/19 00:37:57;;;;;;;2.03;1.92;;;2.80;99.90;;;;;;5021607;28;20169;-72
2022/04/19 00:40:22;;;;;;;1.80;1.70;;;2.90;99.90;;;;;;5023094;28;20084;-72
2022/04/19 00:42:49;;;;;;;1.73;1.63;;;2.90;99.90;;;;;;5018850;28;20108;-73
2022/04/19 00:45:14;;;;;;;1.75;1.65;;;2.90;99.90;;;;;;5023315;28;20048;-73
2022/04/19 00:47:40;;;;;;;3.05;2.20;;;2.80;99.90;;;;;;5021641;28;20033;-73
2022/04/19 00:50:07;;;;;;;2.88;2.20;;;2.80;99.90;;;;;;5019643;28;21581;-73
2022/04/19 00:52:35;;;;;;;2.40;2.20;;;2.80;99.90;;;;;;5021077;28;20457;-73
2022/04/19 00:55:01;;;;;;;2.08;1.88;;;2.70;99.90;;;;;;5021344;28;20051;-73
2022/04/19 00:57:28;;;;;;;1.75;1.65;;;2.50;99.90;;;;;;5022992;28;20112;-73
2022/04/19 00:59:55;;;;;;;2.47;2.28;;;2.30;99.90;;;;;;5020664;28;20037;-73
2022/04/19 01:02:21;;;;;;;3.00;1.80;;;2.00;99.90;;;;;;5022210;28;20045;-73
2022/04/19 01:04:49;;;;;;;3.22;2.50;;;1.70;99.90;;;;;;5025508;28;20103;-72
2022/04/19 01:07:18;;;;;;;3.58;2.28;;;1.70;99.90;;;;;;5025591;28;20065;-72
2022/04/19 01:09:45;;;;;;;3.38;2.10;;;1.80;99.90;;;;;;5028733;28;20530;-72
2022/04/19 01:15:31;;;;;;;3.28;1.95;;;1.70;99.90;;;;;;5027706;28;20053;-72
2022/04/19 01:18:01;;;;;;;2.22;1.95;;;1.70;99.90;;;;;;5020632;28;20611;-72
2022/04/19 01:20:31;;;;;;;3.00;2.35;;;1.80;99.90;;;;;;5030427;28;20032;-72
2022/04/19 01:22:57;;;;;;;2.45;2.25;;;1.90;99.90;;;;;;5026589;28;20045;-72
2022/04/19 01:25:23;;;;;;;2.88;2.67;;;2.00;99.90;;;;;;5028947;28;20485;-72
2022/04/19 01:27:49;;;;;;;2.05;1.85;;;2.00;99.90;;;;;;5014681;28;20037;-72
2022/04/19 01:30:16;;;;;;;8.38;1.95;;;2.00;99.90;;;;;;5022149;28;20025;-72
2022/04/19 01:32:42;;;;;;;4.40;2.20;;;2.00;99.90;;;;;;5025385;28;20046;-72
2022/04/19 01:35:17;;;;;;;2.33;2.10;;;2.10;99.90;;;;;;5030700;28;20056;-73
2022/04/19 01:37:49;;;;;;;2.17;1.92;;;2.10;99.90;;;;;;5033391;28;20431;-73
2022/04/19 01:40:16;;;;;;;4.57;1.77;;;2.20;99.90;;;;;;5035057;28;20124;-72
2022/04/19 01:42:47;;;;;;;2.83;2.08;;;2.20;99.90;;;;;;5050389;28;20099;-72
2022/04/19 01:45:24;;;;;;;2.50;2.30;;;2.10;99.90;;;;;;5031781;28;20037;-72
2022/04/19 01:47:51;;;;;;;2.50;2.25;;;2.20;99.90;;;;;;5038186;28;20029;-72
2022/04/19 01:50:19;;;;;;;2.70;1.95;;;2.10;99.90;;;;;;5039563;28;20025;-73
2022/04/19 01:52:46;;;;;;;2.30;2.10;;;2.20;99.90;;;;;;5034240;28;20155;-72
2022/04/19 01:55:15;;;;;;;2.03;1.90;;;2.30;99.90;;;;;;5035191;28;20041;-73
2022/04/19 01:57:48;;;;;;;2.95;2.17;;;2.30;99.90;;;;;;5036325;28;20025;-72
2022/04/19 02:00:20;;;;;;;3.38;2.00;;;2.40;99.90;;;;;;5030927;28;20029;-73
2022/04/19 02:02:48;;;;;;;3.78;2.10;;;2.40;99.90;;;;;;5009467;28;20033;-72
2022/04/19 02:05:16;;;;;;;2.13;1.92;;;2.50;99.90;;;;;;5039360;28;20040;-72
2022/04/19 02:07:44;;;;;;;2.53;1.87;;;2.50;99.90;;;;;;5037060;28;20534;-72
2022/04/19 02:10:12;;;;;;;2.13;1.92;;;2.50;99.90;;;;;;5041988;28;20094;-73
2022/04/19 02:12:41;;;;;;;2.35;2.20;;;2.50;99.90;;;;;;5029659;28;20048;-73
2022/04/19 02:15:08;;;;;;;2.22;1.95;;;2.50;99.90;;;;;;5028332;28;20064;-73
2022/04/19 02:17:34;;;;;;;2.53;1.90;;;2.50;99.90;;;;;;5027849;28;20129;-73
2022/04/19 02:20:05;;;;;;;2.33;2.13;;;2.60;99.90;;;;;;5025865;28;20116;-72
2022/04/19 02:22:34;;;;;;;2.33;2.00;;;2.50;99.90;;;;;;5025285;28;20029;-73
2022/04/19 02:25:00;;;;;;;2.22;2.03;;;2.40;99.90;;;;;;5027656;28;20163;-73
2022/04/19 02:27:28;;;;;;;2.30;2.17;;;2.20;99.90;;;;;;5028558;28;20492;-73
2022/04/19 02:29:57;;;;;;;2.30;2.13;;;2.20;99.90;;;;;;5024727;28;20608;-73
2022/04/19 02:32:23;;;;;;;2.00;1.85;;;2.20;99.90;;;;;;5026458;28;22590;-73
2022/04/19 02:34:53;;;;;;;2.88;1.73;;;2.30;99.90;;;;;;5026001;28;20238;-73
2022/04/19 02:37:19;;;;;;;4.45;2.10;;;2.30;99.90;;;;;;5027110;28;20049;-73
2022/04/19 02:39:51;;;;;;;2.72;2.15;;;2.30;99.90;;;;;;5030788;28;20028;-72
2022/04/19 02:42:17;;;;;;;2.53;2.00;;;2.30;99.90;;;;;;5031507;28;20056;-72
2022/04/19 02:44:44;;;;;;;2.50;2.30;;;2.30;99.90;;;;;;5031798;28;20038;-72
2022/04/19 02:47:10;;;;;;;3.33;2.28;;;2.30;99.90;;;;;;5026714;28;20084;-73
2022/04/19 02:49:40;;;;;;;4.05;2.70;;;2.40;99.90;;;;;;5029761;28;20033;-72
2022/04/19 02:52:06;;;;;;;2.78;2.25;;;2.40;99.90;;;;;;5027272;28;22330;-72
2022/04/19 02:54:35;;;;;;;3.35;2.15;;;2.30;99.90;;;;;;5033177;28;20036;-72
2022/04/19 02:57:02;;;;;;;2.30;2.10;;;2.30;99.90;;;;;;5017412;28;20041;-72
2022/04/19 02:59:36;;;;;;;1.95;1.85;;;2.40;99.90;;;;;;5032940;28;20029;-72
2022/04/19 03:02:09;;;;;;;2.25;2.10;;;2.30;99.90;;;;;;5030421;28;20064;-72
2022/04/19 03:04:38;;;;;;;3.17;2.50;;;2.20;99.90;;;;;;5033957;28;20037;-72
2022/04/19 03:07:08;;;;;;;4.63;2.47;;;2.20;99.90;;;;;;5028686;28;20040;-72
2022/04/19 03:09:34;;;;;;;2.00;1.70;;;2.20;99.90;;;;;;5028757;28;20057;-72
2022/04/19 03:12:01;;;;;;;3.05;2.40;;;2.10;99.90;;;;;;5031592;28;20093;-72
2022/04/19 03:14:31;;;;;;;2.35;2.15;;;2.00;99.90;;;;;;5027189;28;22027;-72
2022/04/19 03:16:57;;;;;;;6.82;2.50;;;1.60;99.90;;;;;;5026213;28;20488;-72
2022/04/19 03:19:23;;;;;;;4.35;3.03;;;1.50;99.90;;;;;;5030054;28;20388;-72
2022/04/19 03:21:48;;;;;;;3.40;2.60;;;1.50;99.90;;;;;;5026523;28;20691;-73
2022/04/19 03:29:43;;;;;;;2.42;2.22;;;1.60;99.90;;;;;;5026008;28;20043;-73
2022/04/19 03:32:09;;;;;;;2.60;2.38;;;1.60;99.90;;;;;;4998029;28;20068;-73
2022/04/19 03:34:35;;;;;;;8.35;3.45;;;1.50;99.90;;;;;;5030883;28;20491;-73
2022/04/19 03:37:01;;;;;;;6.65;2.85;;;1.50;99.90;;;;;;5036539;28;20124;-71
2022/04/19 03:39:27;;;;;;;2.70;2.13;;;1.50;99.90;;;;;;5024324;28;20457;-72
2022/04/19 03:41:52;;;;;;;3.10;2.17;;;1.60;99.90;;;;;;5026587;28;20055;-72
2022/04/19 03:44:18;;;;;;;5.05;2.25;;;1.60;99.90;;;;;;5025691;28;20063;-72
2022/04/19 03:49:28;;;;;;;3.70;2.30;;;1.20;99.90;;;;;;5026029;28;20036;-72
2022/04/19 03:51:54;;;;;;;2.97;2.15;;;1.10;99.90;;;;;;5023864;28;20030;-72
2022/04/19 03:54:19;;;;;;;2.58;1.90;;;0.90;99.90;;;;;;5024537;28;20053;-72
2022/04/19 03:56:45;;;;;;;3.55;2.40;;;1.00;99.90;;;;;;5026279;28;20516;-72
2022/04/19 03:59:11;;;;;;;4.78;2.42;;;1.00;99.90;;;;;;5027111;28;20116;-73
2022/04/19 04:01:38;;;;;;;3.22;2.58;;;1.10;99.90;;;;;;5025298;28;20156;-73
2022/04/19 04:04:04;;;;;;;4.63;2.78;;;1.20;99.90;;;;;;5022267;28;20136;-72
2022/04/19 04:06:30;;;;;;;3.35;3.05;;;1.40;99.90;;;;;;5023860;28;20026;-72
2022/04/19 04:08:56;;;;;;;7.25;2.92;;;1.50;99.90;;;;;;5026235;28;20064;-72
2022/04/19 04:11:22;;;;;;;3.47;3.15;;;1.60;99.90;;;;;;5028080;28;20667;-72
2022/04/19 04:13:47;;;;;;;6.40;2.70;;;1.70;99.90;;;;;;5026975;28;20029;-72
2022/04/19 04:16:13;;;;;;;3.53;2.92;;;1.70;99.90;;;;;;5027301;28;20473;-72
2022/04/19 04:18:39;;;;;;;5.43;2.78;;;1.80;99.90;;;;;;5027538;28;20029;-72
2022/04/19 04:21:05;;;;;;;7.20;3.63;;;1.90;99.90;;;;;;5028799;28;20036;-72
2022/04/19 04:23:33;;;;;;;6.30;3.03;;;1.90;99.90;;;;;;5025003;28;20037;-72
2022/04/19 04:26:00;;;;;;;8.65;2.97;;;2.00;99.90;;;;;;5027099;28;20033;-73
2022/04/19 04:28:26;;;;;;;4.80;2.75;;;2.10;99.90;;;;;;5027952;28;20026;-73
2022/04/19 04:30:52;;;;;;;4.72;2.90;;;2.10;99.90;;;;;;5025968;28;21011;-73
2022/04/19 04:33:18;;;;;;;4.20;3.25;;;2.00;99.90;;;;;;5026073;28;20065;-72
2022/04/19 04:35:43;;;;;;;4.07;2.70;;;2.00;99.90;;;;;;5028867;28;20034;-72
2022/04/19 04:38:14;;;;;;;2.47;2.13;;;2.00;99.90;;;;;;5031185;28;22606;-73
2022/04/19 04:40:40;;;;;;;2.92;2.70;;;1.90;99.90;;;;;;5027886;28;20026;-72
2022/04/19 04:43:06;;;;;;;5.57;2.92;;;1.70;99.90;;;;;;5027105;28;20084;-72
2022/04/19 04:45:32;;;;;;;2.38;2.17;;;1.70;99.90;;;;;;5026681;28;20380;-72
2022/04/19 04:50:46;;;;;;;3.10;2.65;;;1.30;99.90;;;;;;5029547;28;20087;-72
2022/04/19 04:53:12;;;;;;;3.58;3.17;;;1.40;99.90;;;;;;5027993;28;20033;-73
2022/04/19 04:55:38;;;;;;;4.53;2.97;;;1.40;99.90;;;;;;5027187;28;20079;-73
2022/04/19 04:58:03;;;;;;;4.05;2.53;;;1.40;99.90;;;;;;5030192;28;20097;-72
2022/04/19 05:00:30;;;;;;;4.90;3.42;;;1.40;99.90;;;;;;5028390;28;20056;-72
2022/04/19 05:02:56;;;;;;;8.65;3.55;;;1.30;99.90;;;;;;5029289;28;20029;-73
2022/04/19 05:05:22;;;;;;;7.90;3.88;;;1.30;99.90;;;;;;5027665;28;20093;-72
2022/04/19 05:07:48;;;;;;;4.38;2.67;;;1.40;99.90;;;;;;5029841;28;20049;-72
2022/04/19 05:10:14;;;;;;;9.82;4.65;;;1.40;99.90;;;;;;5030380;28;20057;-73
2022/04/19 05:12:40;;;;;;;7.50;4.05;;;1.40;99.90;;;;;;5029502;28;20064;-72
2022/04/19 05:15:06;;;;;;;5.13;3.00;;;1.50;99.90;;;;;;5028916;28;20033;-72
2022/04/19 05:17:34;;;;;;;8.52;3.03;;;1.60;99.90;;;;;;5029385;28;20033;-72
2022/04/19 05:20:00;;;;;;;4.88;3.35;;;1.80;99.90;;;;;;5025377;28;20069;-72
2022/04/19 05:22:26;;;;;;;3.30;3.00;;;1.90;99.90;;;;;;5030717;28;20068;-72
2022/04/19 05:24:54;;;;;;;5.07;3.33;;;2.00;99.90;;;;;;5029339;28;20032;-72
2022/04/19 05:27:20;;;;;;;4.85;3.35;;;2.00;99.90;;;;;;5032269;28;20041;-73
2022/04/19 05:29:55;;;;;;;4.45;2.42;;;2.10;99.90;;;;;;5028940;28;20041;-71
2022/04/19 05:32:21;;;;;;;6.22;3.08;;;2.20;99.90;;;;;;5029737;28;20103;-72
2022/04/19 05:34:49;;;;;;;7.47;2.80;;;2.30;99.90;;;;;;5027776;28;20033;-73
2022/04/19 05:37:15;;;;;;;3.85;2.05;;;2.40;99.90;;;;;;5024507;28;20039;-73
2022/04/19 05:39:40;;;;;;;2.97;2.72;;;2.50;99.90;;;;;;5026623;28;20041;-73
2022/04/19 05:42:06;;;;;;;4.72;3.25;;;2.60;99.90;;;;;;5028897;28;20061;-73
2022/04/19 05:44:32;;;;;;;3.10;2.90;;;2.60;99.90;;;;;;5026236;28;20029;-72
2022/04/19 05:46:57;;;;;;;2.88;2.67;;;2.70;99.90;;;;;;5024924;28;20042;-72
2022/04/19 05:49:23;;;;;;;5.22;3.25;;;2.80;99.90;;;;;;5024496;28;20649;-73
2022/04/19 05:51:49;;;;;;;5.13;3.00;;;3.00;99.90;;;;;;5025720;28;20056;-73
2022/04/19 05:54:15;;;;;;;3.35;3.00;;;3.10;99.90;;;;;;5027469;28;20040;-73
2022/04/19 05:56:41;;;;;;;4.18;3.20;;;3.20;99.90;;;;;;5024607;28;20033;-73
2022/04/19 05:59:06;;;;;;;4.32;2.92;;;3.30;99.90;;;;;;5028706;28;20025;-73
2022/04/19 06:04:51;;;;;;;4.65;3.13;;;3.50;99.90;;;;;;5027179;28;20116;-73
2022/04/19 06:07:02;;;;;;;3.70;3.03;;;3.80;99.90;;;;;;5025490;28;20036;-73
2022/04/19 06:09:27;;;;;;;7.65;3.60;;;3.90;99.90;;;;;;5025308;28;20392;-73
2022/04/19 06:11:53;;;;;;;12.27;3.53;;;4.00;99.90;;;;;;5023174;28;20029;-73
2022/04/19 06:14:19;;;;;;;7.35;3.70;;;4.20;99.90;;;;;;5022912;28;20033;-73
2022/04/19 06:16:45;;;;;;;9.95;3.60;;;4.40;99.90;;;;;;5025757;28;20041;-74
2022/04/19 06:19:11;;;;;;;5.00;2.90;;;4.50;99.90;;;;;;5024345;28;20087;-73
2022/04/19 06:21:36;;;;;;;4.88;3.70;;;4.60;99.90;;;;;;5024680;28;20030;-74
2022/04/19 06:24:04;;;;;;;3.92;3.05;;;4.80;99.90;;;;;;5025321;28;22117;-73
2022/04/19 06:26:29;;;;;;;3.65;2.92;;;4.90;99.90;;;;;;5026955;28;20037;-74
2022/04/19 06:28:55;;;;;;;3.78;2.75;;;5.00;99.90;;;;;;5026011;28;20022;-73
2022/04/19 06:31:21;;;;;;;4.53;2.83;;;5.20;99.90;;;;;;5026095;28;20128;-73
2022/04/19 06:33:47;;;;;;;4.05;2.90;;;5.30;99.90;;;;;;5026116;28;20037;-73
2022/04/19 06:36:12;;;;;;;4.25;3.25;;;5.40;99.90;;;;;;5030340;28;20069;-73
2022/04/19 06:38:41;;;;;;;4.00;3.15;;;5.60;99.90;;;;;;5028350;28;20029;-73
2022/04/19 06:41:11;;;;;;;3.90;3.22;;;5.80;99.90;;;;;;5026585;28;20028;-73
2022/04/19 06:43:37;;;;;;;3.30;3.00;;;6.00;99.90;;;;;;5028571;28;20382;-73
2022/04/19 06:46:02;;;;;;;2.63;2.42;;;6.10;99.90;;;;;;5030930;28;20451;-73
2022/04/19 06:48:29;;;;;;;3.72;2.78;;;6.20;99.90;;;;;;5030195;28;20476;-73
2022/04/19 06:50:55;;;;;;;7.88;3.67;;;6.40;99.90;;;;;;5045904;28;20035;-73
2022/04/19 06:53:20;;;;;;;4.70;3.63;;;6.70;99.90;;;;;;5027480;28;20033;-73
2022/04/19 06:55:46;;;;;;;3.53;3.10;;;6.90;99.90;;;;;;5027954;28;20037;-73
2022/04/19 06:58:12;;;;;;;4.55;3.65;;;7.10;99.90;;;;;;5029009;28;20055;-73
2022/04/19 07:00:37;;;;;;;3.78;2.85;;;7.30;99.90;;;;;;5025710;28;20393;-74
2022/04/19 07:03:03;;;;;;;6.25;3.25;;;7.50;99.90;;;;;;5024645;28;20120;-73
2022/04/19 07:05:29;;;;;;;3.55;3.25;;;7.60;99.40;;;;;;5026135;28;20060;-72
2022/04/19 07:07:54;;;;;;;3.72;3.40;;;7.70;99.90;;;;;;5025713;28;20034;-73
2022/04/19 07:10:20;;;;;;;4.00;3.53;;;7.70;99.90;;;;;;5027287;28;20486;-73
2022/04/19 07:12:46;;;;;;;3.95;2.47;;;8.00;99.80;;;;;;5028292;28;20026;-73
2022/04/19 07:15:12;;;;;;;4.55;3.83;;;8.20;99.00;;;;;;5022516;28;20045;-74
2022/04/19 07:17:39;;;;;;;3.85;3.13;;;8.40;98.70;;;;;;5022129;28;20106;-73
2022/04/19 07:28:17;;;;;;;7.15;3.30;;;9.10;95.50;;;;;;5024562;28;20032;-74
2022/04/19 07:30:43;;;;;;;4.70;3.58;;;9.40;96.20;;;;;;5023242;28;20033;-74
2022/04/19 07:33:09;;;;;;;3.90;3.13;;;9.60;91.60;;;;;;5025620;28;20124;-74
2022/04/19 07:35:35;;;;;;;5.63;3.00;;;9.80;91.20;;;;;;5026665;28;20091;-73
2022/04/19 07:38:00;;;;;;;5.45;3.67;;;9.80;95.30;;;;;;5024825;28;20052;-74
2022/04/19 07:40:26;;;;;;;4.05;3.20;;;9.90;92.80;;;;;;5028198;28;20037;-74
2022/04/19 07:42:51;;;;;;;4.03;2.83;;;9.90;85.90;;;;;;5025843;28;20058;-74
2022/04/19 07:45:17;;;;;;;4.10;3.40;;;10.00;92.80;;;;;;5027436;28;20460;-74
2022/04/19 07:47:43;;;;;;;6.38;3.45;;;10.20;93.70;;;;;;5024096;28;20755;-74
2022/04/19 07:50:08;;;;;;;4.82;3.20;;;10.30;91.10;;;;;;5027354;28;20055;-74
2022/04/19 07:52:35;;;;;;;4.90;3.38;;;10.40;89.50;;;;;;5026190;28;20088;-74
2022/04/19 07:55:02;;;;;;;4.97;2.70;;;10.50;85.60;;;;;;5027667;28;20048;-74
2022/04/19 07:57:27;;;;;;;4.78;3.00;;;10.80;91.10;;;;;;5018836;28;20022;-74
2022/04/19 07:59:54;;;;;;;4.47;3.17;;;11.00;81.30;;;;;;5026733;28;20496;-74
2022/04/19 08:02:20;;;;;;;4.43;3.03;;;11.10;77.20;;;;;;5026148;28;20037;-74
2022/04/19 08:04:46;;;;;;;4.95;2.88;;;11.40;91.10;;;;;;5027485;28;20026;-74
2022/04/19 08:07:13;;;;;;;4.90;3.35;;;11.50;79.30;;;;;;5034502;28;20029;-74
2022/04/19 08:09:39;;;;;;;5.03;3.08;;;11.70;79.40;;;;;;5026863;28;20030;-74
2022/04/19 08:12:05;;;;;;;4.85;2.90;;;11.80;67.60;;;;;;5031602;28;20042;-74
2022/04/19 08:14:32;;;;;;;6.63;2.75;;;11.80;68.30;;;;;;5026707;28;20030;-75
2022/04/19 08:16:59;;;;;;;5.15;2.95;;;11.90;68.70;;;;;;5032857;28;20061;-74
2022/04/19 08:19:25;;;;;;;4.37;3.03;;;11.90;66.00;;;;;;5024630;28;20065;-75
2022/04/19 08:21:57;;;;;;;4.57;3.00;;;12.10;66.90;;;;;;5031097;28;20178;-74
2022/04/19 08:24:23;;;;;;;4.45;3.55;;;12.30;59.70;;;;;;5027925;28;20038;-75
2022/04/19 08:26:48;;;;;;;3.05;2.17;;;12.50;58.00;;;;;;5028900;28;20033;-75
2022/04/19 08:29:14;;;;;;;5.35;3.42;;;12.60;58.50;;;;;;5022614;28;20084;-75
2022/04/19 08:31:39;;;;;;;5.32;3.15;;;12.80;60.50;;;;;;5022273;28;20500;-75
2022/04/19 08:34:05;;;;;;;6.55;3.35;;;12.80;66.20;;;;;;5023070;28;20040;-75
2022/04/19 08:36:31;;;;;;;4.72;2.90;;;12.80;62.60;;;;;;5022333;28;20045;-75
2022/04/19 08:38:56;;;;;;;3.90;3.55;;;12.70;73.20;;;;;;5030339;28;20432;-75
2022/04/19 08:41:22;;;;;;;6.38;3.80;;;12.60;64.60;;;;;;5018886;28;20037;-75
2022/04/19 08:43:51;;;;;;;4.45;3.30;;;12.70;63.50;;;;;;5022629;28;20037;-75
2022/04/19 08:46:18;;;;;;;4.82;3.20;;;12.50;64.60;;;;;;5021187;28;20385;-75
2022/04/19 08:48:44;;;;;;;6.30;3.75;;;12.50;66.70;;;;;;5020980;28;20466;-75
2022/04/19 08:51:12;;;;;;;5.70;3.88;;;12.60;63.60;;;;;;5025354;28;20386;-75
2022/04/19 08:59:07;;;;;;;5.97;3.50;;;12.80;64.70;;;;;;5023253;28;20064;-75
2022/04/19 09:01:36;;;;;;;5.30;3.35;;;12.90;68.50;;;;;;5017822;28;20132;-73
2022/04/19 09:04:06;;;;;;;5.93;3.80;;;13.00;62.70;;;;;;5019701;28;20407;-74
2022/04/19 09:06:51;;;;;;;4.68;3.80;;;13.10;72.50;;;;;;5022289;28;20029;-74
2022/04/19 09:09:19;;;;;;;6.88;3.60;;;13.30;74.10;;;;;;5021776;28;20421;-74
2022/04/19 09:11:45;;;;;;;;;;;13.30;61.10;;;;;;5021051;28;20134;-73
2022/04/19 09:14:10;;;;;;;6.82;4.10;;;13.40;70.60;;;;;;5024062;28;20432;-74
2022/04/19 09:16:36;;;;;;;6.18;4.15;;;13.30;68.10;;;;;;5024613;28;20053;-74
2022/04/19 09:19:02;;;;;;;7.68;4.18;;;13.40;62.40;;;;;;5023063;28;20037;-74
2022/04/19 09:21:41;;;;;;;4.05;3.20;;;13.40;66.10;;;;;;5023839;28;20029;-74
2022/04/19 09:24:20;;;;;;;6.70;4.05;;;13.30;59.40;;;;;;5021862;28;20421;-74
2022/04/19 09:26:48;;;;;;;5.78;3.83;;;13.40;64.10;;;;;;5022297;28;20033;-75
2022/04/19 09:29:22;;;;;;;6.97;4.05;;;13.60;58.90;;;;;;5026414;28;20044;-75
2022/04/19 09:31:52;;;;;;;8.05;4.22;;;13.60;56.30;;;;;;5022861;28;20392;-74
2022/04/19 09:34:28;;;;;;;8.93;3.97;;;13.80;67.00;;;;;;5027401;28;20033;-74
2022/04/19 09:37:11;;;;;;;4.15;3.13;;;14.20;61.80;;;;;;5022706;28;20045;-74
2022/04/19 09:39:41;;;;;;;4.85;2.90;;;14.50;55.50;;;;;;5025719;28;20096;-75
2022/04/19 09:42:16;;;;;;;5.35;3.10;;;14.80;48.20;;;;;;5021866;28;20049;-74
2022/04/19 09:44:43;;;;;;;3.83;3.22;;;14.80;53.80;;;;;;5024748;28;20498;-74
2022/04/19 09:47:13;;;;;;;6.05;3.38;;;14.80;50.40;;;;;;5026132;28;20121;-74
2022/04/19 09:49:51;;;;;;;4.80;2.80;;;14.60;48.80;;;;;;5021845;28;20033;-74
2022/04/19 09:52:41;;;;;;;4.82;3.20;;;14.70;52.90;;;;;;5023079;28;20033;-75
2022/04/19 09:55:09;;;;;;;5.20;2.88;;;15.10;49.50;;;;;;5024392;28;20030;-75
2022/04/19 09:57:37;;;;;;;5.55;3.38;;;14.70;54.50;;;;;;5022720;28;20029;-74
2022/04/19 10:00:13;;;;;;;4.30;3.25;;;14.60;53.80;;;;;;5025268;28;20046;-74
2022/04/19 10:08:23;;;;;;;5.70;3.28;;;15.10;47.30;;;;;;5035329;28;20117;-74
2022/04/19 10:10:56;;;;;;;5.25;3.83;;;14.80;49.10;;;;;;5025361;28;20030;-74
2022/04/19 10:13:25;;;;;;;6.32;4.43;;;14.80;51.10;;;;;;5023164;28;20099;-75
2022/04/19 10:15:52;;;;;;;5.88;3.80;;;14.80;56.90;;;;;;5027386;28;20072;-74
2022/04/19 10:18:18;;;;;;;5.53;3.38;;;15.00;59.20;;;;;;5027630;28;20030;-75
2022/04/19 10:20:55;;;;;;;4.18;3.20;;;15.20;48.70;;;;;;5021210;28;20041;-75
2022/04/19 10:23:31;;;;;;;4.45;3.28;;;15.10;48.10;;;;;;5021846;28;20725;-74
2022/04/19 10:26:19;;;;;;;5.63;3.30;;;14.80;48.60;;;;;;5026397;28;20037;-75
2022/04/19 10:28:46;;;;;;;4.97;3.33;;;15.00;49.10;;;;;;5020220;28;20038;-75
2022/04/19 10:31:13;;;;;;;6.57;3.95;;;15.20;48.90;;;;;;5023169;28;20349;-74
2022/04/19 10:33:39;;;;;;;4.93;3.30;;;14.90;53.20;;;;;;5022852;28;20184;-73
2022/04/19 10:36:37;;;;;;;6.78;3.50;;;15.00;53.10;;;;;;5021804;28;20056;-74
2022/04/19 10:39:15;;;;;;;6.80;3.10;;;15.10;49.20;;;;;;5009923;28;20796;-73
2022/04/19 10:41:49;;;;;;;6.20;3.58;;;15.40;46.00;;;;;;5023380;28;20057;-74
2022/04/19 10:44:31;;;;;;;5.65;3.17;;;15.60;45.20;;;;;;5023014;28;20045;-74
2022/04/19 10:47:02;;;;;;;5.53;3.28;;;15.60;44.50;;;;;;5023944;28;20052;-74
2022/04/19 10:49:28;;;;;;;5.32;3.35;;;15.60;43.60;;;;;;5021032;28;20030;-74
2022/04/19 10:51:59;;;;;;;6.45;3.72;;;15.60;43.60;;;;;;5024208;28;20364;-74
2022/04/19 10:55:02;;;;;;;5.88;3.83;;;15.40;53.30;;;;;;5025543;28;20499;-74
2022/04/19 11:00:31;;;;;;;4.07;2.83;;;15.60;46.30;;;;;;5028296;28;20032;-74
2022/04/19 11:03:03;;;;;;;5.03;3.10;;;15.80;41.70;;;;;;5030456;28;20510;-74
2022/04/19 11:05:52;;;;;;;3.70;2.78;;;15.90;43.20;;;;;;5030758;28;20089;-73
2022/04/19 11:08:26;;;;;;;4.40;2.90;;;15.90;40.90;;;;;;5026532;28;20026;-73
2022/04/19 11:10:55;;;;;;;6.60;3.67;;;15.90;44.40;;;;;;5025960;28;20055;-74
2022/04/19 11:13:21;;;;;;;4.93;3.50;;;15.80;48.50;;;;;;5025888;28;20037;-74
2022/04/19 11:15:57;;;;;;;3.97;2.58;;;15.70;50.50;;;;;;5031348;28;20045;-74
2022/04/19 11:18:25;;;;;;;5.20;3.33;;;15.80;44.10;;;;;;5028910;28;20033;-73
2022/04/19 11:20:57;;;;;;;6.63;3.40;;;15.80;43.60;;;;;;5029021;28;20037;-74
2022/04/19 11:23:25;;;;;;;6.05;4.00;;;15.80;46.20;;;;;;5026919;28;20033;-73
2022/04/19 11:25:51;;;;;;;;;;;15.60;45.50;;;;;;5024868;28;20041;-74
2022/04/19 11:28:21;;;;;;;6.13;3.28;;;15.20;44.50;;;;;;5026224;28;20308;-74
2022/04/19 11:30:50;;;;;;;5.60;3.60;;;15.40;49.00;;;;;;5022770;28;20119;-73
2022/04/19 11:33:33;;;;;;;5.00;3.42;;;15.30;49.90;;;;;;5029270;28;20057;-74
2022/04/19 11:36:07;;;;;;;11.25;8.63;;;15.40;48.40;;;;;;5025296;28;20049;-74
2022/04/19 11:38:51;;;;;;;5.55;3.75;;;15.70;47.80;;;;;;5024624;28;20103;-73
2022/04/19 11:46:58;;;;;;;5.70;3.67;;;16.10;42.20;;;;;;5025881;28;20040;-74
2022/04/19 11:49:26;;;;;;;4.90;3.65;;;16.30;45.80;;;;;;5028602;28;20540;-74
2022/04/19 11:52:11;;;;;;;4.50;3.50;;;15.90;47.10;;;;;;5026515;28;20033;-74
2022/04/19 11:54:37;;;;;;;4.13;3.60;;;15.50;44.80;;;;;;5023100;28;20068;-74
2022/04/19 11:57:08;;;;;;;6.07;4.22;;;15.60;50.70;;;;;;5024539;28;20488;-75
2022/04/19 11:59:40;;;;;;;7.75;4.25;;;15.80;52.60;;;;;;5022137;28;20029;-75
2022/04/19 12:02:17;;;;;;;4.97;3.63;;;15.50;53.50;;;;;;5020059;28;20045;-75
2022/04/19 12:04:54;;;;;;;4.53;3.72;;;15.60;48.70;;;;;;5021357;28;20030;-75
2022/04/19 12:07:21;;;;;;;5.68;3.20;;;15.80;47.30;;;;;;5023439;28;20029;-75
2022/04/19 12:09:51;;;;;;;5.03;3.63;;;15.90;44.80;;;;;;5019537;28;20059;-75
2022/04/19 12:12:19;;;;;;;7.05;4.32;;;15.90;49.90;;;;;;5024504;28;20025;-75
2022/04/19 12:14:50;;;;;;;6.53;4.50;;;16.10;45.30;;;;;;5023089;28;20060;-75
2022/04/19 12:17:20;;;;;;;6.40;4.10;;;15.50;48.00;;;;;;5026405;28;20041;-75
2022/04/19 12:19:46;;;;;;;4.85;3.63;;;15.00;50.00;;;;;;5027407;28;20040;-75
2022/04/19 12:22:22;;;;;;;5.32;3.50;;;15.20;48.60;;;;;;5024813;28;20522;-75
2022/04/19 12:24:51;;;;;;;5.55;4.03;;;15.60;49.10;;;;;;5025421;28;20036;-75
2022/04/19 12:27:27;;;;;;;5.93;3.70;;;15.60;47.40;;;;;;5021878;28;20069;-75
2022/04/19 12:30:01;;;;;;;5.20;3.40;;;15.40;47.70;;;;;;5020159;28;20099;-75
2022/04/19 12:32:49;;;;;;;4.97;3.40;;;15.20;50.50;;;;;;5024339;28;20047;-75
2022/04/19 12:35:15;;;;;;;4.70;3.70;;;14.80;47.10;;;;;;5022644;28;20037;-75
2022/04/19 12:37:40;;;;;;;4.28;3.30;;;14.30;50.00;;;;;;5023284;28;20280;-75
2022/04/19 12:40:07;;;;;;;5.05;3.50;;;14.70;49.70;;;;;;5025648;28;20025;-74
2022/04/19 12:42:53;;;;;;;8.27;3.47;;;15.20;52.70;;;;;;5022379;28;20053;-74
2022/04/19 12:45:19;;;;;;;7.18;3.10;;;15.40;44.80;;;;;;5023405;28;20033;-74
2022/04/19 12:47:49;;;;;;;3.55;2.95;;;15.30;46.10;;;;;;5022851;28;20560;-74
2022/04/19 12:50:21;;;;;;;5.32;3.13;;;14.80;48.70;;;;;;5025175;28;20746;-74
2022/04/19 12:52:47;;;;;;;6.05;3.05;;;14.20;45.30;;;;;;5023053;28;21288;-74
2022/04/19 12:55:14;;;;;;;4.68;3.35;;;14.20;47.50;;;;;;5024776;28;20385;-74
2022/04/19 13:01:02;;;;;;;4.88;2.85;;;15.00;49.00;;;;;;5022042;28;20083;-74
2022/04/19 13:03:27;;;;;;;3.92;2.67;;;15.50;48.80;;;;;;5025702;28;20037;-74
2022/04/19 13:14:05;;;;;;;2.53;2.28;;;15.30;45.80;;;;;;5016209;28;20412;-74
2022/04/19 13:16:31;;;;;;;3.15;2.85;;;15.00;51.70;;;;;;5024207;28;20029;-74
2022/04/19 13:18:57;;;;;;;3.67;2.72;;;15.20;49.20;;;;;;5019331;28;20636;-74
2022/04/19 13:21:24;;;;;;;5.78;2.47;;;15.00;47.10;;;;;;5023361;28;20064;-74
2022/04/19 13:23:50;;;;;;;5.38;2.13;;;14.90;50.90;;;;;;5023896;28;20105;-74
2022/04/19 13:26:16;;;;;;;3.33;2.20;;;14.90;44.80;;;;;;5022420;28;20040;-74
2022/04/19 13:28:41;;;;;;;2.50;2.20;;;15.10;45.80;;;;;;5024947;28;20050;-74
2022/04/19 13:31:07;;;;;;;3.45;2.17;;;15.50;48.10;;;;;;5022627;28;20045;-74
2022/04/19 13:33:32;;;;;;;4.95;2.70;;;15.90;47.00;;;;;;5024029;28;20033;-74
2022/04/19 13:35:59;;;;;;;2.65;2.45;;;15.80;48.20;;;;;;5024245;28;20037;-74
2022/04/19 13:38:24;;;;;;;3.30;2.10;;;15.40;42.10;;;;;;5023241;28;20029;-74
2022/04/19 13:40:52;;;;;;;3.08;2.15;;;15.10;48.80;;;;;;5021457;28;20365;-74
2022/04/19 13:43:17;;;;;;;3.72;2.60;;;15.70;45.40;;;;;;5026332;28;20440;-74
2022/04/19 13:45:43;;;;;;;2.80;2.42;;;16.10;43.00;;;;;;5028092;28;20033;-74
2022/04/19 13:48:09;;;;;;;4.22;2.67;;;16.10;46.20;;;;;;5029055;28;20036;-74
2022/04/19 13:50:40;;;;;;;4.97;2.25;;;15.80;44.90;;;;;;5027215;28;20025;-74
2022/04/19 13:53:09;;;;;;;4.28;2.70;;;15.60;44.80;;;;;;5027964;28;20485;-74
2022/04/19 13:55:35;;;;;;;3.17;2.20;;;15.70;45.30;;;;;;5028277;28;20424;-74